Time;durP1;ratioP1;P1;durP2;ratioP2;P2;SDS_P1;SDS_P2;PMS_P1;PMS_P2;Temp;Humidity;BMP_temperature;BMP_pressure;BME280_temperature;BME280_humidity;BME280_pressure;Samples;Min_cycle;Max_cycle;Signal;HPM_P1;HPM_P2
2022/08/07 00:01:15;;;;;;;8.20;7.60;;;;;;;23.08;53.60;94632.25;5098591;28;20207;-71
2022/08/07 00:03:42;;;;;;;8.20;7.35;;;;;;;23.01;53.92;94633.22;5097007;28;20207;-71
2022/08/07 00:06:09;;;;;;;7.97;7.18;;;;;;;22.98;53.91;94630.53;5098353;28;20193;-71
2022/08/07 00:08:37;;;;;;;8.25;7.47;;;;;;;22.94;54.23;94630.63;5097369;28;20211;-71
2022/08/07 00:11:07;;;;;;;7.88;7.18;;;;;;;22.88;54.52;94629.56;5097305;28;20204;-71
2022/08/07 00:13:36;;;;;;;8.00;7.30;;;;;;;22.79;54.69;94630.19;5097063;28;20205;-71
2022/08/07 00:16:08;;;;;;;7.53;6.93;;;;;;;22.80;54.66;94628.16;5096987;28;20285;-71
2022/08/07 00:18:37;;;;;;;8.20;7.55;;;;;;;22.81;54.69;94629.75;5098134;28;20192;-71
2022/08/07 00:21:05;;;;;;;7.85;7.25;;;;;;;22.80;54.68;94637.41;5097144;28;20215;-71
2022/08/07 00:23:34;;;;;;;7.43;6.82;;;;;;;22.78;54.59;94634.25;5096665;28;20596;-71
2022/08/07 00:26:03;;;;;;;7.95;7.25;;;;;;;22.76;54.97;94636.69;5097876;28;20204;-71
2022/08/07 00:28:32;;;;;;;7.25;6.65;;;;;;;22.76;55.08;94635.91;5097804;28;20192;-71
2022/08/07 00:31:02;;;;;;;7.97;7.20;;;;;;;22.73;55.24;94639.59;5097889;28;20187;-71
2022/08/07 00:33:34;;;;;;;8.07;7.47;;;;;;;22.67;55.21;94639.34;5096738;28;20212;-71
2022/08/07 00:36:02;;;;;;;8.27;7.55;;;;;;;22.63;55.10;94641.47;5098297;28;20203;-71
2022/08/07 00:38:29;;;;;;;8.00;7.30;;;;;;;22.58;55.16;94639.97;5096800;28;20192;-71
2022/08/07 00:40:57;;;;;;;8.02;7.43;;;;;;;22.54;55.27;94646.91;5096658;28;20197;-71
2022/08/07 00:43:24;;;;;;;7.07;6.38;;;;;;;22.50;55.27;94647.00;5097457;28;20192;-71
2022/08/07 00:45:51;;;;;;;8.15;7.43;;;;;;;22.50;55.27;94649.81;5096608;28;20185;-71
2022/08/07 00:48:18;;;;;;;8.68;7.78;;;;;;;22.53;55.45;94645.34;5096436;28;20188;-71
2022/08/07 00:50:47;;;;;;;7.53;6.82;;;;;;;22.56;55.48;94647.28;5096429;28;20196;-71
2022/08/07 00:53:14;;;;;;;7.60;6.90;;;;;;;22.56;55.37;94639.63;5096497;28;20196;-71
2022/08/07 00:55:42;;;;;;;7.60;6.97;;;;;;;22.54;55.57;94636.47;5096101;28;20235;-71
2022/08/07 00:58:09;;;;;;;7.43;6.72;;;;;;;22.55;54.69;94638.06;5097408;28;20180;-71
2022/08/07 01:00:37;;;;;;;7.55;6.95;;;;;;;22.57;54.72;94646.03;5096331;28;20206;-71
2022/08/07 01:03:05;;;;;;;7.50;6.90;;;;;;;22.58;55.13;94639.97;5095852;28;20204;-71
2022/08/07 01:05:33;;;;;;;7.53;6.93;;;;;;;22.56;55.25;94645.25;5097246;28;20195;-71
2022/08/07 01:08:03;;;;;;;7.10;6.50;;;;;;;22.57;55.36;94640.41;5096360;28;20196;-71
2022/08/07 01:10:31;;;;;;;8.05;7.35;;;;;;;22.56;55.32;94641.66;5096316;28;20636;-71
2022/08/07 01:12:59;;;;;;;8.13;7.43;;;;;;;22.53;55.61;94640.50;5096919;28;20188;-71
2022/08/07 01:15:28;;;;;;;9.75;7.28;;;;;;;22.49;55.77;94645.44;5095935;28;20212;-71
2022/08/07 01:17:56;;;;;;;8.32;7.53;;;;;;;22.47;55.86;94641.47;5095548;28;20207;-71
2022/08/07 01:20:33;;;;;;;7.63;6.95;;;;;;;22.42;56.01;94640.00;5096812;28;20196;-71
2022/08/07 01:23:03;;;;;;;7.85;7.15;;;;;;;22.39;56.16;94652.13;5096941;28;20188;-71
2022/08/07 01:25:30;;;;;;;8.27;7.45;;;;;;;22.33;56.28;94649.06;5096610;28;20192;-71
2022/08/07 01:28:00;;;;;;;8.07;7.47;;;;;;;22.29;56.43;94653.94;5096586;28;20219;-71
2022/08/07 01:30:30;;;;;;;8.13;7.43;;;;;;;22.26;56.58;94665.28;5096530;28;20188;-71
2022/08/07 01:32:56;;;;;;;8.48;7.78;;;;;;;22.25;56.78;94656.06;5096542;28;20245;-71
2022/08/07 01:35:25;;;;;;;7.85;7.18;;;;;;;22.24;56.71;94659.31;5095740;28;20270;-71
2022/08/07 01:37:52;;;;;;;8.48;7.45;;;;;;;22.15;57.11;94656.31;5096034;28;20211;-71
2022/08/07 01:40:24;;;;;;;8.43;7.65;;;;;;;22.10;57.23;94649.97;5095704;28;20215;-71
2022/08/07 01:42:50;;;;;;;7.93;6.85;;;;;;;22.17;56.95;94659.50;5095481;28;20208;-71
2022/08/07 01:45:20;;;;;;;7.97;7.28;;;;;;;22.22;56.70;94668.19;5095200;28;20215;-71
2022/08/07 01:47:48;;;;;;;8.60;7.80;;;;;;;22.22;57.17;94675.81;5095189;28;20199;-71
2022/08/07 01:50:16;;;;;;;8.95;8.13;;;;;;;22.20;57.18;94675.47;5095934;28;20341;-71
2022/08/07 01:52:45;;;;;;;11.00;9.65;;;;;;;22.18;57.28;94684.31;5095163;28;20215;-71
2022/08/07 01:55:14;;;;;;;8.98;8.10;;;;;;;22.18;57.02;94697.56;5095111;28;20231;-71
2022/08/07 01:57:43;;;;;;;10.07;9.18;;;;;;;22.17;57.09;94710.06;5095117;28;20188;-71
2022/08/07 02:00:12;;;;;;;10.32;9.32;;;;;;;22.13;56.75;94720.56;5094788;28;20210;-71
2022/08/07 02:02:43;;;;;;;9.68;8.75;;;;;;;22.12;56.84;94747.84;5095240;28;20250;-71
2022/08/07 02:05:17;;;;;;;9.57;8.57;;;;;;;22.14;56.71;94762.25;5094701;28;20195;-71
2022/08/07 02:07:52;;;;;;;8.90;8.10;;;;;;;22.18;56.23;94768.59;5095008;28;20197;-71
2022/08/07 02:10:27;;;;;;;8.30;7.70;;;;;;;22.21;55.96;94762.09;5095049;28;20207;-71
2022/08/07 02:12:59;;;;;;;8.30;7.60;;;;;;;22.24;55.82;94758.41;5095137;28;20200;-71
2022/08/07 02:15:28;;;;;;;8.88;7.97;;;;;;;22.28;56.10;94758.34;5094794;28;20223;-71
2022/08/07 02:17:58;;;;;;;8.75;8.05;;;;;;;22.29;55.59;94760.69;5094562;28;20279;-71
2022/08/07 02:20:25;;;;;;;8.85;8.05;;;;;;;22.31;55.70;94766.69;5095023;28;20246;-71
2022/08/07 02:22:57;;;;;;;9.15;8.35;;;;;;;22.34;55.96;94767.84;5094475;28;20196;-71
2022/08/07 02:25:28;;;;;;;9.50;8.52;;;;;;;22.32;55.67;94767.47;5094515;28;20283;-71
2022/08/07 02:27:59;;;;;;;9.35;8.52;;;;;;;22.34;56.13;94765.03;5094327;28;20240;-71
2022/08/07 02:30:27;;;;;;;9.02;8.30;;;;;;;22.31;56.41;94744.22;5094886;28;20200;-71
2022/08/07 02:32:55;;;;;;;9.40;8.50;;;;;;;22.26;57.69;94729.88;5095234;28;20624;-71
2022/08/07 02:35:24;;;;;;;9.40;8.60;;;;;;;22.25;57.84;94715.06;5095493;28;20307;-71
2022/08/07 02:37:54;;;;;;;9.05;8.18;;;;;;;22.24;58.23;94698.66;5094618;28;20195;-71
2022/08/07 02:40:21;;;;;;;8.35;7.65;;;;;;;22.26;58.65;94682.13;5094366;28;20195;-71
2022/08/07 02:42:50;;;;;;;8.32;7.70;;;;;;;22.23;58.79;94678.19;5094785;28;20197;-71
2022/08/07 02:45:21;;;;;;;9.55;8.25;;;;;;;22.24;59.79;94678.97;5094616;28;20200;-71
2022/08/07 02:47:49;;;;;;;8.32;7.63;;;;;;;22.27;59.55;94676.09;5094613;28;20192;-71
2022/08/07 02:50:17;;;;;;;8.32;7.55;;;;;;;22.28;59.65;94683.28;5094602;28;20199;-71
2022/08/07 02:52:54;;;;;;;9.45;7.30;;;;;;;22.32;59.80;94691.63;5094609;28;20207;-71
2022/08/07 02:55:23;;;;;;;8.15;7.45;;;;;;;22.31;60.75;94693.66;5094248;28;20223;-71
2022/08/07 02:57:52;;;;;;;7.65;7.05;;;;;;;22.26;62.24;94688.56;5094213;28;20207;-71
2022/08/07 03:00:22;;;;;;;8.23;7.53;;;;;;;22.21;63.28;94691.88;5094511;28;20192;-71
2022/08/07 03:02:51;;;;;;;8.55;7.78;;;;;;;22.16;63.28;94689.59;5094075;28;20207;-71
2022/08/07 03:05:20;;;;;;;8.50;7.80;;;;;;;22.16;63.55;94678.38;5094300;28;20596;-71
2022/08/07 03:07:48;;;;;;;7.97;7.38;;;;;;;22.14;64.92;94669.56;5094076;28;20204;-71
2022/08/07 03:10:16;;;;;;;8.30;7.50;;;;;;;;;;5094529;28;20196;-71
2022/08/07 03:12:48;;;;;;;7.95;7.15;;;;;;;21.98;65.53;94661.91;5097786;28;20227;-71
2022/08/07 03:15:14;;;;;;;8.52;7.82;;;;;;;21.99;65.98;94671.13;5098091;28;20224;-71
2022/08/07 03:17:47;;;;;;;8.27;7.57;;;;;;;22.04;66.31;94670.59;5097840;28;20196;-71
2022/08/07 03:20:15;;;;;;;7.60;6.90;;;;;;;22.04;65.69;94660.16;5098242;28;20200;-71
2022/08/07 03:22:44;;;;;;;7.80;7.10;;;;;;;22.07;66.17;94666.91;5098225;28;20192;-70
2022/08/07 03:25:10;;;;;;;6.95;6.47;;;;;;;22.08;66.22;94677.72;5098430;28;20188;-70
2022/08/07 03:27:39;;;;;;;7.30;6.60;;;;;;;22.13;64.35;94678.41;5097643;28;20201;-70
2022/08/07 03:30:07;;;;;;;7.63;7.03;;;;;;;22.13;64.00;94678.41;5098360;28;20191;-71
2022/08/07 03:32:37;;;;;;;7.25;6.70;;;;;;;22.14;64.69;94675.19;5097740;28;20224;-71
2022/08/07 03:35:13;;;;;;;8.20;7.53;;;;;;;22.14;64.59;94680.00;5097815;28;20223;-71
2022/08/07 03:37:43;;;;;;;8.40;7.75;;;;;;;22.14;65.02;94675.19;5098039;28;20218;-71
2022/08/07 03:40:12;;;;;;;8.48;7.78;;;;;;;22.11;65.32;94676.84;5097602;28;20189;-71
2022/08/07 03:42:41;;;;;;;8.93;8.05;;;;;;;22.13;65.50;94673.59;5097853;28;20200;-71
2022/08/07 03:45:09;;;;;;;8.82;8.02;;;;;;;22.11;65.29;94676.84;5097882;28;20192;-71
2022/08/07 03:47:38;;;;;;;8.18;7.47;;;;;;;22.07;65.14;94678.94;5097642;28;20200;-71
2022/08/07 03:50:11;;;;;;;8.60;7.80;;;;;;;22.06;65.81;94685.78;5097689;28;20639;-71
2022/08/07 03:52:39;;;;;;;9.23;8.40;;;;;;;;;;5097681;28;20209;-71
2022/08/07 03:55:07;;;;;;;9.50;8.73;;;;;;;22.07;64.79;94700.59;5097672;28;20220;-71
2022/08/07 03:57:36;;;;;;;9.43;8.50;;;;;;;22.08;65.28;94696.59;5097371;28;20235;-71
2022/08/07 04:00:06;;;;;;;9.45;8.75;;;;;;;22.10;64.69;94710.97;5098168;28;20188;-71
2022/08/07 04:02:34;;;;;;;10.13;9.25;;;;;;;22.09;64.79;94715.00;5097380;28;20204;-71
2022/08/07 04:05:04;;;;;;;9.82;8.93;;;;;;;22.07;64.91;94711.84;5097288;28;20204;-71
2022/08/07 04:07:33;;;;;;;9.10;8.40;;;;;;;22.02;65.01;94715.97;5097149;28;20232;-71
2022/08/07 04:10:01;;;;;;;10.40;9.50;;;;;;;22.03;65.31;94706.31;5097128;28;20188;-71
2022/08/07 04:12:29;;;;;;;9.45;8.75;;;;;;;;;;5098178;28;20188;-71
2022/08/07 04:14:59;;;;;;;10.63;9.52;;;;;;;22.09;64.81;94704.56;5097081;28;20663;-70
2022/08/07 04:17:27;;;;;;;9.98;9.07;;;;;;;22.13;64.82;94710.09;5096755;28;20234;-71
2022/08/07 04:19:55;;;;;;;8.63;7.88;;;;;;;22.12;65.35;94711.34;5097017;28;20196;-70
2022/08/07 04:22:25;;;;;;;9.07;8.32;;;;;;;22.10;65.17;94708.94;5096416;28;20205;-70
2022/08/07 04:24:53;;;;;;;8.73;7.93;;;;;;;22.16;65.15;94719.72;5096998;28;20196;-71
2022/08/07 04:27:20;;;;;;;8.70;7.90;;;;;;;22.17;65.46;94716.44;5096939;28;20278;-71
2022/08/07 04:29:46;;;;;;;8.68;7.70;;;;;;;22.20;64.97;94721.19;5096638;28;20204;-71
2022/08/07 04:32:15;;;;;;;7.55;6.90;;;;;;;22.23;65.00;94719.53;5097008;28;20204;-71
2022/08/07 04:34:43;;;;;;;8.27;7.57;;;;;;;22.24;64.92;94727.53;5096360;28;20224;-71
2022/08/07 04:37:10;;;;;;;8.20;7.50;;;;;;;22.25;64.90;94731.91;5096552;28;20214;-71
2022/08/07 04:39:38;;;;;;;7.75;7.07;;;;;;;22.27;64.91;94731.47;5096645;28;20666;-71
2022/08/07 04:42:10;;;;;;;8.23;7.53;;;;;;;22.28;65.05;94733.84;5096715;28;20208;-71
2022/08/07 04:44:38;;;;;;;7.90;7.22;;;;;;;22.30;64.91;94739.81;5096737;28;20589;-71
2022/08/07 04:47:09;;;;;;;8.35;7.57;;;;;;;22.32;65.61;94736.56;5096755;28;20196;-71
2022/08/07 04:49:43;;;;;;;9.02;7.43;;;;;;;22.32;64.95;94730.94;5096223;28;20208;-71
2022/08/07 04:52:14;;;;;;;8.45;7.60;;;;;;;22.33;65.24;94733.34;5096105;28;20200;-70
2022/08/07 04:54:47;;;;;;;7.88;7.25;;;;;;;22.35;65.70;94732.88;5096221;28;20223;-71
2022/08/07 04:57:23;;;;;;;8.48;7.68;;;;;;;22.38;65.31;94739.66;5096565;28;20243;-71
2022/08/07 04:59:58;;;;;;;8.13;7.43;;;;;;;22.39;64.46;94742.03;5096265;28;20203;-71
2022/08/07 05:02:29;;;;;;;8.38;7.57;;;;;;;22.41;64.96;94748.00;5096101;28;20620;-71
2022/08/07 05:05:00;;;;;;;8.02;7.32;;;;;;;22.51;65.42;94746.16;5096520;28;20200;-70
2022/08/07 05:07:35;;;;;;;7.80;7.07;;;;;;;22.52;64.53;94750.56;5095834;28;20201;-70
2022/08/07 05:10:09;;;;;;;7.68;6.95;;;;;;;22.54;64.48;94753.72;5095941;28;20196;-71
2022/08/07 05:12:40;;;;;;;7.38;6.82;;;;;;;22.55;64.64;94755.31;5096480;28;20257;-71
2022/08/07 05:15:20;;;;;;;7.55;6.88;;;;;;;22.55;64.21;94756.09;5095898;28;20224;-71
2022/08/07 05:17:48;;;;;;;7.90;7.20;;;;;;;22.57;64.05;94758.47;5095510;28;20545;-71
2022/08/07 05:20:23;;;;;;;7.30;6.70;;;;;;;22.57;64.23;94753.63;5095614;28;20188;-71
2022/08/07 05:22:53;;;;;;;7.00;6.40;;;;;;;22.58;63.77;94760.03;5096666;28;20184;-71
2022/08/07 05:25:26;;;;;;;7.85;7.13;;;;;;;22.58;63.92;94757.22;5096353;28;20200;-71
2022/08/07 05:27:56;;;;;;;7.10;6.40;;;;;;;22.58;63.98;94760.81;5096917;28;20235;-71
2022/08/07 05:30:25;;;;;;;7.70;7.00;;;;;;;22.58;63.68;94760.81;5078568;28;20542;-71
2022/08/07 05:32:54;;;;;;;7.40;6.80;;;;;;;22.62;63.44;94762.75;5095821;28;20197;-71
2022/08/07 05:35:21;;;;;;;8.30;7.60;;;;;;;22.64;63.57;94760.31;5095479;28;20287;-71
2022/08/07 05:37:50;;;;;;;7.38;6.78;;;;;;;22.66;63.55;94761.47;5078278;28;20204;-71
2022/08/07 05:40:17;;;;;;;7.55;6.85;;;;;;;22.69;63.37;94765.41;5096160;28;20212;-71
2022/08/07 05:42:45;;;;;;;7.97;7.28;;;;;;;22.72;63.53;94765.31;5095505;28;20238;-71
2022/08/07 05:45:13;;;;;;;7.85;7.15;;;;;;;22.73;63.42;94778.16;5095090;28;20616;-71
2022/08/07 05:47:42;;;;;;;7.32;6.65;;;;;;;22.76;63.27;94777.25;5095924;28;20647;-71
2022/08/07 05:50:10;;;;;;;6.50;6.00;;;;;;;22.82;63.43;94778.31;5096052;28;20212;-71
2022/08/07 05:52:38;;;;;;;7.53;6.90;;;;;;;22.90;63.33;94784.56;5095816;28;20188;-71
2022/08/07 05:55:08;;;;;;;7.10;6.45;;;;;;;22.99;63.02;94786.78;5096344;28;20200;-71
2022/08/07 05:57:37;;;;;;;7.05;6.35;;;;;;;23.06;62.94;94792.22;5095277;28;20223;-71
2022/08/07 06:00:07;;;;;;;7.50;6.90;;;;;;;23.13;62.96;94791.22;5096248;28;20192;-71
2022/08/07 06:02:36;;;;;;;7.60;6.90;;;;;;;23.15;62.21;94800.03;5095351;28;20206;-71
2022/08/07 06:05:07;;;;;;;7.80;6.97;;;;;;;23.14;62.45;94804.09;5095368;28;20200;-71
2022/08/07 06:07:35;;;;;;;8.95;8.15;;;;;;;23.16;62.45;94802.41;5095276;28;20225;-71
2022/08/07 06:10:05;;;;;;;8.40;7.65;;;;;;;23.20;62.88;94807.94;5095113;28;20204;-71
2022/08/07 06:12:34;;;;;;;8.90;8.10;;;;;;;23.24;62.26;94805.81;5094935;28;20192;-71
2022/08/07 06:15:01;;;;;;;8.48;7.68;;;;;;;23.26;62.21;94804.16;5095880;28;20188;-71
2022/08/07 06:17:31;;;;;;;7.95;7.30;;;;;;;23.29;62.15;94806.09;5094875;28;20196;-71
2022/08/07 06:20:01;;;;;;;8.32;7.63;;;;;;;23.31;61.53;94811.25;5095792;28;20180;-71
2022/08/07 06:22:31;;;;;;;8.27;7.47;;;;;;;23.34;61.31;94803.97;5096117;28;20211;-71
2022/08/07 06:24:59;;;;;;;8.23;7.53;;;;;;;23.37;61.82;94814.34;5095807;28;20657;-71
2022/08/07 06:27:27;;;;;;;8.50;7.70;;;;;;;23.38;61.37;94799.03;5095580;28;20250;-71
2022/08/07 06:29:55;;;;;;;7.93;7.20;;;;;;;23.41;61.19;94803.78;5094642;28;20207;-71
2022/08/07 06:32:22;;;;;;;8.02;7.32;;;;;;;23.45;60.80;94810.88;5095553;28;20242;-71
2022/08/07 06:34:50;;;;;;;7.88;7.20;;;;;;;23.49;60.62;94805.16;5095474;28;20192;-71
2022/08/07 06:37:23;;;;;;;7.95;7.15;;;;;;;23.52;60.66;94807.88;5095362;28;20220;-71
2022/08/07 06:39:52;;;;;;;8.90;8.20;;;;;;;23.56;59.66;94799.34;5094463;28;20534;-71
2022/08/07 06:42:25;;;;;;;9.80;8.80;;;;;;;23.59;59.45;94806.09;5094741;28;20291;-71
2022/08/07 06:44:55;;;;;;;8.45;7.65;;;;;;;23.63;59.21;94796.31;5095064;28;20188;-71
2022/08/07 06:47:22;;;;;;;6.95;6.25;;;;;;;23.67;59.14;94799.84;5094643;28;20188;-71
2022/08/07 06:49:50;;;;;;;8.20;7.50;;;;;;;23.69;59.88;94796.63;5095300;28;20199;-71
2022/08/07 06:52:23;;;;;;;7.60;6.90;;;;;;;23.71;59.59;94803.38;5095351;28;20612;-71
2022/08/07 06:54:51;;;;;;;8.35;7.53;;;;;;;23.72;59.41;94796.50;5095165;28;20195;-71
2022/08/07 06:57:20;;;;;;;8.18;7.47;;;;;;;23.73;58.92;94802.94;5095094;28;20655;-71
2022/08/07 06:59:49;;;;;;;8.60;7.90;;;;;;;23.75;58.57;94801.25;5095015;28;20195;-71
2022/08/07 07:02:20;;;;;;;10.30;9.40;;;;;;;23.75;58.39;94798.44;5095085;28;20180;-71
2022/08/07 07:04:48;;;;;;;8.73;7.93;;;;;;;23.78;57.31;94803.19;5095331;28;20188;-71
2022/08/07 07:07:16;;;;;;;8.52;7.55;;;;;;;23.83;57.51;94792.59;5094226;28;20195;-71
2022/08/07 07:09:47;;;;;;;7.90;7.00;;;;;;;23.87;55.87;94799.72;5095138;28;20211;-71
2022/08/07 07:12:31;;;;;;;7.95;7.22;;;;;;;23.94;55.58;94807.16;5095256;28;20198;-71
2022/08/07 07:15:02;;;;;;;8.18;7.38;;;;;;;23.98;55.27;94800.19;5095236;28;20302;-71
2022/08/07 07:17:34;;;;;;;8.32;7.53;;;;;;;24.02;55.77;94800.88;5094213;28;20231;-71
2022/08/07 07:20:05;;;;;;;9.15;8.35;;;;;;;24.08;55.88;94803.16;5093925;28;20604;-71
2022/08/07 07:22:34;;;;;;;8.98;7.50;;;;;;;24.14;54.70;94809.78;5094132;28;20220;-71
2022/08/07 07:25:06;;;;;;;8.23;7.43;;;;;;;24.19;54.40;94806.44;5094367;28;20184;-71
2022/08/07 07:27:40;;;;;;;8.80;8.00;;;;;;;24.24;56.03;94805.88;5094728;28;20216;-71
2022/08/07 07:30:10;;;;;;;7.95;7.20;;;;;;;24.32;55.06;94800.81;5094067;28;20200;-71
2022/08/07 07:32:39;;;;;;;8.10;7.40;;;;;;;24.38;55.71;94805.44;5094897;28;20265;-71
2022/08/07 07:35:10;;;;;;;7.85;7.25;;;;;;;24.47;54.63;94805.63;5094024;28;20239;-71
2022/08/07 07:37:40;;;;;;;8.25;7.55;;;;;;;24.51;54.79;94808.31;5094959;28;20215;-71
2022/08/07 07:40:14;;;;;;;8.98;8.20;;;;;;;24.52;55.41;94801.44;5094351;28;20197;-71
2022/08/07 07:42:43;;;;;;;7.75;7.15;;;;;;;24.56;54.06;94802.13;5094807;28;20195;-71
2022/08/07 07:45:12;;;;;;;6.63;6.03;;;;;;;24.64;51.70;94800.63;5094886;28;20249;-71
2022/08/07 07:47:42;;;;;;;7.50;6.85;;;;;;;24.68;51.46;94804.13;5093963;28;20220;-71
2022/08/07 07:50:11;;;;;;;7.72;6.88;;;;;;;24.75;52.06;94811.59;5094066;28;20197;-71
2022/08/07 07:52:38;;;;;;;7.43;6.78;;;;;;;24.82;51.46;94811.34;5094794;28;20246;-71
2022/08/07 07:55:09;;;;;;;7.40;6.70;;;;;;;24.88;50.38;94811.59;5093954;28;20204;-71
2022/08/07 07:57:38;;;;;;;8.23;7.35;;;;;;;24.98;50.33;94799.97;5094865;28;20243;-71
2022/08/07 08:00:06;;;;;;;7.93;7.22;;;;;;;25.05;50.33;94810.19;5097674;28;20196;-71
2022/08/07 08:02:35;;;;;;;8.07;7.28;;;;;;;25.15;49.48;94803.44;5097503;28;20609;-71
2022/08/07 08:05:04;;;;;;;8.77;7.97;;;;;;;25.23;49.71;94812.44;5097505;28;20196;-71
2022/08/07 08:07:32;;;;;;;9.73;8.82;;;;;;;25.25;49.94;94807.16;5097365;28;20207;-71
2022/08/07 08:10:03;;;;;;;9.48;8.68;;;;;;;25.30;49.84;94817.84;5097494;28;20199;-71
2022/08/07 08:12:33;;;;;;;10.57;9.57;;;;;;;25.34;50.92;94809.25;5098106;28;20708;-71
2022/08/07 08:15:01;;;;;;;11.00;10.10;;;;;;;25.45;49.88;94810.50;5097155;28;20188;-71
2022/08/07 08:17:33;;;;;;;10.95;10.05;;;;;;;25.55;49.93;94813.38;5097947;28;20208;-71
2022/08/07 08:20:04;;;;;;;12.93;11.73;;;;;;;25.66;49.86;94819.44;5097121;28;20196;-71
2022/08/07 08:28:12;;;;;;;13.23;12.02;;;;;;;25.70;50.26;94820.09;5097369;28;20195;-71
2022/08/07 08:30:42;;;;;;;13.15;11.88;;;;;;;25.68;50.54;94822.63;5096814;28;20195;-71
2022/08/07 08:33:15;;;;;;;13.43;12.13;;;;;;;25.71;50.53;94816.06;5097456;28;20185;-71
2022/08/07 08:35:44;;;;;;;11.55;10.55;;;;;;;25.83;50.16;94820.88;5096574;28;20215;-71
2022/08/07 08:38:13;;;;;;;10.75;9.75;;;;;;;25.93;49.47;94810.44;5096472;28;20196;-71
2022/08/07 08:40:42;;;;;;;9.15;8.35;;;;;;;25.92;48.98;94817.34;5097451;28;20189;-71
2022/08/07 08:43:18;;;;;;;10.07;9.15;;;;;;;26.00;49.65;94821.50;5097581;28;20195;-71
2022/08/07 08:45:50;;;;;;;10.85;9.88;;;;;;;26.13;50.04;94813.72;5097305;28;20204;-71
2022/08/07 08:48:25;;;;;;;11.27;10.18;;;;;;;26.32;48.48;94820.28;5096570;28;20214;-71
2022/08/07 08:50:57;;;;;;;10.98;10.07;;;;;;;26.33;47.99;94821.09;5096613;28;20596;-71
2022/08/07 08:53:33;;;;;;;11.02;10.02;;;;;;;26.35;48.33;94815.75;5097313;28;20189;-71
2022/08/07 08:56:04;;;;;;;10.32;9.43;;;;;;;26.48;47.30;94812.88;5096916;28;20240;-71
2022/08/07 08:58:46;;;;;;;9.32;8.52;;;;;;;26.48;47.67;94816.47;5097260;28;20189;-71
2022/08/07 09:01:21;;;;;;;9.75;8.85;;;;;;;26.57;46.98;94810.84;5096868;28;20612;-71
2022/08/07 09:03:55;;;;;;;9.23;8.45;;;;;;;26.56;46.61;94814.16;5097190;28;20215;-71
2022/08/07 09:06:36;;;;;;;8.98;8.27;;;;;;;26.41;47.14;94813.91;5096146;28;20184;-71
2022/08/07 09:09:10;;;;;;;8.30;7.53;;;;;;;26.21;47.26;94814.22;5095617;28;20551;-71
2022/08/07 09:11:43;;;;;;;9.95;8.98;;;;;;;26.14;48.26;94815.31;5096017;28;20204;-71
2022/08/07 09:14:18;;;;;;;8.82;8.13;;;;;;;26.19;48.35;94813.16;5096023;28;20204;-71
2022/08/07 09:17:02;;;;;;;8.18;7.47;;;;;;;26.19;48.21;94816.75;5096919;28;20199;-71
2022/08/07 09:19:42;;;;;;;8.90;8.20;;;;;;;26.21;48.23;94797.28;5095775;28;20203;-71
2022/08/07 09:22:15;;;;;;;8.77;8.07;;;;;;;26.41;48.26;94805.41;5096788;28;20192;-71
2022/08/07 09:24:50;;;;;;;8.93;8.02;;;;;;;26.68;46.18;94801.16;5095968;28;20213;-71
2022/08/07 09:27:26;;;;;;;8.18;7.47;;;;;;;26.79;46.61;94791.00;5096660;28;20188;-71
2022/08/07 09:30:02;;;;;;;8.13;7.43;;;;;;;26.94;46.14;94793.25;5095634;28;20573;-71
2022/08/07 09:32:52;;;;;;;7.93;7.32;;;;;;;27.10;45.79;94790.16;5096134;28;20207;-71
2022/08/07 09:35:28;;;;;;;8.13;7.43;;;;;;;27.20;45.33;94793.81;5095797;28;20538;-71
2022/08/07 09:38:16;;;;;;;7.65;6.97;;;;;;;27.21;44.51;94790.53;5096483;28;20215;-71
2022/08/07 09:41:00;;;;;;;7.75;7.15;;;;;;;27.31;44.83;94780.03;5095634;28;20232;-71
2022/08/07 09:43:37;;;;;;;7.45;6.72;;;;;;;27.47;45.16;94781.78;5095488;28;20242;-71
2022/08/07 09:46:14;;;;;;;8.20;7.50;;;;;;;27.61;45.51;94786.81;5096452;28;20573;-71
2022/08/07 09:48:48;;;;;;;7.90;7.20;;;;;;;27.59;45.98;94787.28;5096312;28;20220;-71
2022/08/07 09:51:44;;;;;;;8.50;7.80;;;;;;;27.65;45.17;94773.28;5096263;28;20200;-71
2022/08/07 09:54:16;;;;;;;9.48;8.68;;;;;;;27.86;44.61;94782.13;5095976;28;20197;-71
2022/08/07 09:57:20;;;;;;;9.35;8.52;;;;;;;27.96;44.72;94775.16;5094921;28;20235;-71
2022/08/07 10:00:09;;;;;;;10.05;9.05;;;;;;;28.08;43.45;94780.69;5034072;28;20202;-71
2022/08/07 10:03:14;;;;;;;7.85;7.22;;;;;;;28.01;44.01;94772.50;5086983;28;20295;-71
2022/08/07 10:06:01;;;;;;;12.68;11.15;;;;;;;27.99;44.31;94760.06;5095846;28;20650;-71
2022/08/07 10:08:57;;;;;;;8.30;7.60;;;;;;;27.73;42.93;94766.03;5094863;28;20216;-71
2022/08/07 10:11:54;;;;;;;11.85;7.55;;;;;;;27.55;41.78;94774.53;5095925;28;20185;-71
2022/08/07 10:14:54;;;;;;;6.93;6.32;;;;;;;27.60;41.74;94754.09;5095154;28;20208;-71
2022/08/07 10:17:34;;;;;;;7.07;6.47;;;;;;;27.76;43.08;94762.28;5094554;28;20216;-71
2022/08/07 10:20:22;;;;;;;7.28;6.65;;;;;;;27.88;41.70;94751.25;5094284;28;20249;-71
2022/08/07 10:23:26;;;;;;;7.15;6.55;;;;;;;28.06;41.92;94754.06;5094304;28;20208;-71
2022/08/07 10:26:21;;;;;;;8.13;7.22;;;;;;;28.36;41.92;94762.81;5089647;28;20219;-71
2022/08/07 10:29:14;;;;;;;7.43;6.72;;;;;;;28.48;41.59;94759.81;5095230;28;20216;-71
2022/08/07 10:31:53;;;;;;;7.53;6.93;;;;;;;28.44;40.87;94750.69;5094553;28;20210;-71
2022/08/07 10:34:43;;;;;;;8.82;8.00;;;;;;;28.52;41.11;94760.44;5094703;28;20192;-72
2022/08/07 10:37:46;;;;;;;8.57;7.70;;;;;;;28.66;40.67;94766.69;5094331;28;20238;-72
2022/08/07 10:40:20;;;;;;;7.88;7.07;;;;;;;28.81;40.92;94750.56;5093803;28;20219;-71
2022/08/07 10:43:00;;;;;;;8.30;7.55;;;;;;;28.64;41.54;94757.88;5094799;28;20253;-71
2022/08/07 10:45:29;;;;;;;8.65;7.72;;;;;;;28.64;42.66;94763.53;5094223;28;20204;-71
2022/08/07 10:48:14;;;;;;;8.75;7.95;;;;;;;28.57;41.81;94766.72;5094392;28;20557;-71
2022/08/07 10:51:06;;;;;;;8.15;7.35;;;;;;;28.67;42.21;94756.91;5094829;28;20199;-71
2022/08/07 10:53:39;;;;;;;8.80;8.00;;;;;;;28.89;43.05;94768.78;5094456;28;20208;-71
2022/08/07 10:56:14;;;;;;;8.00;7.30;;;;;;;28.97;41.43;94769.22;5094896;28;20232;-71
2022/08/07 10:58:51;;;;;;;8.30;7.50;;;;;;;28.77;41.01;94767.75;5094481;28;20198;-71
2022/08/07 11:01:34;;;;;;;10.73;9.73;;;;;;;28.69;41.34;94775.03;5094355;28;20204;-71
2022/08/07 11:04:08;;;;;;;9.68;8.68;;;;;;;28.51;41.64;94761.72;5095274;28;20199;-71
2022/08/07 11:06:45;;;;;;;9.40;8.48;;;;;;;28.27;42.10;94761.59;5094750;28;20196;-71
2022/08/07 11:09:18;;;;;;;7.45;6.75;;;;;;;28.02;41.34;94765.56;5094106;28;20199;-71
2022/08/07 11:11:51;;;;;;;8.27;7.15;;;;;;;27.87;41.57;94764.63;5094208;28;20260;-71
2022/08/07 11:14:26;;;;;;;9.15;8.23;;;;;;;27.90;41.96;94760.88;5094435;28;20199;-71
2022/08/07 11:16:58;;;;;;;8.75;7.85;;;;;;;28.14;42.89;94763.81;5094223;28;20212;-71
2022/08/07 11:19:33;;;;;;;8.18;7.38;;;;;;;28.38;42.82;94763.16;5094903;28;20627;-71
2022/08/07 11:22:07;;;;;;;7.78;7.18;;;;;;;28.56;42.10;94754.59;5094756;28;20211;-71
2022/08/07 11:24:42;;;;;;;7.32;6.72;;;;;;;28.57;42.15;94739.13;5094292;28;20208;-71
2022/08/07 11:27:15;;;;;;;7.72;7.03;;;;;;;28.69;42.41;94738.16;5094091;28;20587;-71
2022/08/07 11:29:50;;;;;;;7.82;7.13;;;;;;;28.86;40.87;94726.41;5093841;28;20217;-71
2022/08/07 11:32:18;;;;;;;7.28;6.68;;;;;;;28.66;41.07;94732.66;5095519;28;20195;-71
2022/08/07 11:34:49;;;;;;;7.50;6.80;;;;;;;28.57;40.76;94738.34;5098190;28;20200;-71
2022/08/07 11:37:26;;;;;;;7.35;6.75;;;;;;;28.49;40.04;94740.75;5098060;28;20310;-71
2022/08/07 11:40:07;;;;;;;7.00;6.40;;;;;;;28.66;40.13;94747.63;5097863;28;20304;-71
2022/08/07 11:42:48;;;;;;;7.15;6.50;;;;;;;28.46;39.68;94755.88;5098263;28;20257;-71
2022/08/07 11:45:30;;;;;;;7.60;6.90;;;;;;;28.15;40.93;94758.94;5097764;28;20229;-71
2022/08/07 11:48:28;;;;;;;7.72;7.10;;;;;;;27.89;42.75;94758.50;5097949;28;20231;-71
2022/08/07 11:51:09;;;;;;;7.70;7.05;;;;;;;27.73;42.92;94757.53;5077012;28;20208;-71
2022/08/07 11:53:46;;;;;;;7.40;6.80;;;;;;;27.62;43.89;94756.44;5098135;28;20554;-71
2022/08/07 11:56:26;;;;;;;8.55;7.85;;;;;;;27.54;43.69;94764.47;5097672;28;20231;-71
2022/08/07 11:59:08;;;;;;;8.52;7.82;;;;;;;27.62;44.88;94759.28;5097806;28;20204;-71
2022/08/07 12:02:02;;;;;;;8.05;7.35;;;;;;;27.83;43.90;94755.53;5097126;28;20196;-71
2022/08/07 12:04:45;;;;;;;7.93;7.22;;;;;;;27.97;42.98;94757.72;5097444;28;20192;-71